Terminal Aerodrome Forecast
Issued by NWS Houston/Galveston, TX

Home | Current Version | Previous Version | Text Only | Print | Product List | Glossary On
Versions: 1 2 3 4 5 6 7 8 9 10 11 12 13 14 15 16 17 18 19 20 21 22 23 24 25 26 27 28 29 30 31
000
FTUS44 KHGX 200521
TAFCLL
TAF
KCLL 200521Z 2006/2106 16015KT P6SM BKN015 OVC025
     FM200900 16014KT P6SM VCSH FEW008 OVC012
     FM201600 16013G23KT P6SM VCSH OVC015
     FM201800 16014G24KT P6SM VCTS SCT015CB BKN025
     FM202000 17017KT 5SM -TSRA BR BKN025CB BKN050 OVC120
     FM210300 17011KT 6SM TSRA BR BKN015CB BKN025 OVC060=

USA.gov is the U.S. government's official web portal to all federal, state and local government web resources and services.